Time;durP1;ratioP1;P1;durP2;ratioP2;P2;SDS_P1;SDS_P2;PMS_P1;PMS_P2;Temp;Humidity;BMP_temperature;BMP_pressure;BME280_temperature;BME280_humidity;BME280_pressure;Samples;Min_cycle;Max_cycle;Signal;HPM_P1;HPM_P2
2022/12/26 00:01:44;;;;;;;67.88;21.58;;;;;;;7.77;100.00;100514.41;4937252;29;20032;-77
2022/12/26 00:04:10;;;;;;;62.28;18.63;;;;;;;7.93;100.00;100507.50;4937175;29;20042;-77
2022/12/26 00:06:35;;;;;;;84.57;22.08;;;;;;;7.82;100.00;100512.13;4919954;29;20031;-77
2022/12/26 00:09:04;;;;;;;110.65;25.38;;;;;;;7.66;100.00;100506.50;4919918;29;20035;-77
2022/12/26 00:11:35;;;;;;;99.32;23.25;;;;;;;7.82;100.00;100506.72;4918694;29;20110;-77
2022/12/26 00:14:13;;;;;;;84.22;22.92;;;;;;;7.63;100.00;100501.44;4918836;29;20035;-77
2022/12/26 00:16:40;;;;;;;80.80;23.00;;;;;;;7.69;100.00;100500.81;4949376;28;20487;-77
2022/12/26 00:19:06;;;;;;;82.50;22.95;;;;;;;7.77;100.00;100506.31;4935860;29;20036;-77
2022/12/26 00:21:32;;;;;;;105.30;23.58;;;;;;;7.83;100.00;100512.97;4917974;29;20028;-77
2022/12/26 00:24:01;;;;;;;95.07;21.80;;;;;;;7.81;100.00;100509.53;4918625;29;20035;-77
2022/12/26 00:26:29;;;;;;;103.15;25.40;;;;;;;7.72;100.00;100511.31;4918718;29;20309;-77
2022/12/26 00:28:55;;;;;;;79.88;19.42;;;;;;;7.67;100.00;100502.81;4921234;29;20111;-77
2022/12/26 00:31:26;;;;;;;122.93;27.45;;;;;;;7.79;100.00;100501.63;4921355;29;20036;-77
2022/12/26 00:33:52;;;;;;;143.65;27.88;;;;;;;7.78;100.00;100505.31;4938894;29;20028;-78
2022/12/26 00:36:21;;;;;;;71.25;21.05;;;;;;;7.64;100.00;100508.50;4908340;29;20039;-77
2022/12/26 00:38:47;;;;;;;151.38;28.88;;;;;;;7.73;100.00;100506.75;4902975;29;20072;-78
2022/12/26 00:41:14;;;;;;;89.75;20.35;;;;;;;7.70;100.00;100502.53;4921343;29;20072;-77
2022/12/26 00:43:40;;;;;;;100.95;23.90;;;;;;;7.96;100.00;100507.22;4921417;29;20052;-77
2022/12/26 00:46:06;;;;;;;163.73;31.92;;;;;;;7.72;100.00;100522.09;4922079;29;20533;-77
2022/12/26 00:48:32;;;;;;;86.95;20.67;;;;;;;7.75;100.00;100531.69;4904738;29;20043;-77
2022/12/26 00:50:58;;;;;;;71.60;20.00;;;;;;;7.33;100.00;100549.16;4920322;29;20142;-76
2022/12/26 00:53:24;;;;;;;118.63;26.08;;;;;;;7.48;100.00;100545.97;4904096;29;20059;-76
2022/12/26 00:55:50;;;;;;;140.32;29.00;;;;;;;7.50;100.00;100533.25;4901753;29;20024;-76
2022/12/26 00:58:16;;;;;;;179.57;33.70;;;;;;;7.42;100.00;100525.03;4934460;29;20027;-76
2022/12/26 01:00:41;;;;;;;262.80;41.38;;;;;;;7.32;100.00;100527.75;4902080;29;20028;-76
2022/12/26 01:03:07;;;;;;;220.90;33.17;;;;;;;7.48;100.00;100527.13;4933879;29;20091;-76
2022/12/26 01:05:33;;;;;;;270.38;40.25;;;;;;;7.53;100.00;100532.94;4902005;29;20095;-76
2022/12/26 01:07:59;;;;;;;226.35;32.55;;;;;;;7.59;100.00;100526.97;4918664;29;20043;-76
2022/12/26 01:10:25;;;;;;;240.23;32.28;;;;;;;7.63;100.00;100522.97;4933501;29;20036;-76
2022/12/26 01:12:50;;;;;;;361.25;44.90;;;;;;;7.51;100.00;100535.78;4902960;29;20034;-78
2022/12/26 01:15:16;;;;;;;311.98;36.00;;;;;;;7.55;100.00;100541.72;4907127;29;20036;-78
2022/12/26 01:17:41;;;;;;;257.75;31.23;;;;;;;7.66;100.00;100528.06;4919524;29;20074;-78
2022/12/26 01:20:07;;;;;;;319.58;32.97;;;;;;;7.69;100.00;100526.91;4920960;29;20028;-78
2022/12/26 01:22:32;;;;;;;342.52;37.40;;;;;;;7.50;100.00;100534.09;4917748;29;20028;-78
2022/12/26 01:24:58;;;;;;;424.90;40.17;;;;;;;7.51;100.00;100534.94;4918251;29;20032;-77
2022/12/26 01:27:24;;;;;;;346.13;35.63;;;;;;;7.69;100.00;100538.53;4918158;29;20083;-78
2022/12/26 01:29:52;;;;;;;372.02;37.08;;;;;;;7.37;100.00;100538.06;4917659;29;20032;-78
2022/12/26 01:32:18;;;;;;;197.75;24.00;;;;;;;7.49;100.00;100526.97;4917430;29;20016;-78
2022/12/26 01:34:44;;;;;;;653.40;50.15;;;;;;;7.49;100.00;100515.34;4917017;29;20036;-75
2022/12/26 01:37:12;;;;;;;463.52;36.22;;;;;;;7.62;100.00;100497.00;4931735;29;20044;-77
2022/12/26 01:39:37;;;;;;;431.65;40.05;;;;;;;7.42;100.00;100503.47;4931903;29;20115;-75
2022/12/26 01:42:11;;;;;;;454.95;40.28;;;;;;;7.45;100.00;100508.59;4916698;29;20099;-75
2022/12/26 01:44:58;;;;;;;244.45;25.05;;;;;;;7.63;100.00;100512.19;4916287;29;20127;-75
2022/12/26 01:48:01;;;;;;;205.52;22.02;;;;;;;7.63;100.00;100512.19;4931276;29;20507;-75
2022/12/26 01:50:34;;;;;;;344.50;30.08;;;;;;;7.33;100.00;100516.81;4904200;29;20115;-76
2022/12/26 01:53:20;;;;;;;285.23;28.40;;;;;;;7.56;100.00;100521.84;4914978;29;20027;-75
2022/12/26 01:55:50;;;;;;;197.13;20.75;;;;;;;7.47;100.00;100528.13;4916246;29;20036;-76
2022/12/26 01:58:23;;;;;;;218.77;22.95;;;;;;;7.66;100.00;100527.22;4917389;29;20028;-76
2022/12/26 02:00:49;;;;;;;134.57;16.50;;;;;;;7.49;100.00;100537.75;4932196;29;20047;-76
2022/12/26 02:06:00;;;;;;;252.27;20.30;;;;;;;7.35;100.00;100530.13;4916223;29;20047;-76
2022/12/26 02:08:31;;;;;;;174.85;19.55;;;;;;;7.67;100.00;100524.38;4915578;29;20032;-76
2022/12/26 02:11:16;;;;;;;188.55;20.73;;;;;;;7.54;100.00;100521.16;4915043;29;20096;-76
2022/12/26 02:13:42;;;;;;;282.88;25.77;;;;;;;7.65;100.00;100530.91;4931396;29;20035;-76
2022/12/26 02:16:12;;;;;;;309.00;25.96;;;;;;;7.49;100.00;100531.50;4891309;29;1253691;-76
2022/12/26 02:18:37;;;;;;;268.90;26.73;;;;;;;7.29;100.00;100536.09;4935441;29;20142;-76
2022/12/26 02:21:09;;;;;;;276.00;27.50;;;;;;;7.35;100.00;100539.06;4919629;29;20074;-76
2022/12/26 02:23:59;;;;;;;233.45;23.90;;;;;;;7.53;100.00;100544.56;4929554;29;20036;-76
2022/12/26 02:26:48;;;;;;;266.30;27.70;;;;;;;7.37;100.00;100548.84;4905085;29;20035;-77
2022/12/26 02:29:36;;;;;;;470.52;42.20;;;;;;;7.46;100.00;100547.97;4923824;29;20035;-76
2022/12/26 02:32:36;;;;;;;382.08;33.70;;;;;;;7.48;100.00;100546.84;4925482;29;20035;-76
2022/12/26 02:35:20;;;;;;;210.27;26.98;;;;;;;7.53;100.00;100541.00;4919489;29;20027;-76
2022/12/26 02:37:58;;;;;;;301.63;32.78;;;;;;;7.54;100.00;100540.00;4919590;29;20059;-76
2022/12/26 02:40:45;;;;;;;326.83;36.53;;;;;;;7.55;100.00;100547.09;4926801;29;20488;-76
2022/12/26 02:43:21;;;;;;;185.45;24.35;;;;;;;7.42;100.00;100542.03;4915645;29;20036;-76
2022/12/26 02:49:01;;;;;;;241.30;32.58;;;;;;;7.25;100.00;100550.88;4917247;29;20028;-76
2022/12/26 03:15:07;;;;;;;175.00;26.05;;;;;;;7.72;100.00;100532.88;4919970;29;20398;-76
2022/12/26 03:17:46;;;;;;;265.65;36.08;;;;;;;7.72;100.00;100535.56;4934407;29;20031;-77
2022/12/26 03:20:15;;;;;;;255.70;33.65;;;;;;;7.79;100.00;100533.97;4934238;29;20055;-76
2022/12/26 03:22:54;;;;;;;272.08;33.17;;;;;;;7.68;100.00;100531.44;4917737;29;20043;-76
2022/12/26 03:28:15;;;;;;;286.75;31.80;;;;;;;7.68;100.00;100553.00;4920031;29;20039;-76
2022/12/26 03:30:50;;;;;;;301.67;33.50;;;;;;;7.46;100.00;100537.22;4917687;29;20031;-77
2022/12/26 03:36:32;;;;;;;362.13;43.50;;;;;;;7.54;100.00;100540.00;4935133;29;20058;-77
2022/12/26 03:39:10;;;;;;;278.23;31.67;;;;;;;7.55;100.00;100542.56;4917927;29;20191;-76
2022/12/26 04:20:11;;;;;;;100.05;25.70;;;;;;;7.84;100.00;100531.69;4940168;29;20008;-77
2022/12/26 04:45:43;;;;;;;170.60;32.97;;;;;;;7.68;100.00;100547.63;4919490;29;20039;-77
2022/12/26 04:50:54;;;;;;;165.23;29.52;;;;;;;8.09;100.00;100534.69;4935549;29;20029;-77
2022/12/26 04:53:20;;;;;;;242.55;35.60;;;;;;;7.86;100.00;100535.06;4938144;29;20015;-77
2022/12/26 04:55:46;;;;;;;149.55;28.42;;;;;;;7.87;100.00;100539.44;4913996;29;20395;-77
2022/12/26 04:58:11;;;;;;;244.73;36.42;;;;;;;7.73;100.00;100531.84;4902011;29;20115;-78
2022/12/26 05:00:37;;;;;;;169.63;31.13;;;;;;;7.88;100.00;100538.44;4918651;29;20030;-77
2022/12/26 05:09:33;;;;;;;148.70;31.80;;;;;;;7.99;100.00;100533.88;4918862;29;20028;-77
2022/12/26 05:11:28;;;;;;;142.07;30.35;;;;;;;8.07;100.00;100547.44;4918285;29;20035;-78
2022/12/26 05:13:55;;;;;;;99.97;27.08;;;;;;;7.82;100.00;100555.25;4910280;29;20091;-78
2022/12/26 05:30:11;;;;;;;116.68;29.75;;;;;;;7.92;100.00;100554.34;4923838;29;20020;-78
2022/12/26 05:35:20;;;;;;;80.75;24.95;;;;;;;7.92;100.00;100548.94;4921834;29;20059;-78
2022/12/26 05:37:46;;;;;;;107.32;28.55;;;;;;;8.00;100.00;100551.75;4935445;29;20030;-78
2022/12/26 05:40:11;;;;;;;98.88;25.92;;;;;;;8.11;100.00;100559.63;4922009;29;20547;-78
2022/12/26 05:42:37;;;;;;;78.75;26.25;;;;;;;8.10;100.00;100563.34;4922007;29;20028;-79
2022/12/26 05:45:02;;;;;;;81.82;26.08;;;;;;;7.96;100.00;100550.34;4950977;29;20024;-78
2022/12/26 05:47:27;;;;;;;71.32;26.85;;;;;;;7.93;100.00;100561.41;4941438;29;20028;-78
2022/12/26 05:49:53;;;;;;;59.13;23.55;;;;;;;7.95;100.00;100559.41;4940759;29;20027;-78
2022/12/26 05:52:18;;;;;;;67.47;23.20;;;;;;;8.09;100.00;100550.84;4956385;29;20035;-79
2022/12/26 05:54:44;;;;;;;71.10;24.92;;;;;;;8.15;100.00;100539.47;4926965;29;20032;-78
2022/12/26 05:57:09;;;;;;;69.85;25.70;;;;;;;8.17;100.00;100548.25;4922207;29;20032;-78
2022/12/26 05:59:35;;;;;;;73.78;25.98;;;;;;;7.92;100.00;100543.56;4921724;29;20095;-78
2022/12/26 06:02:00;;;;;;;76.22;26.77;;;;;;;7.76;100.00;100545.06;4920354;29;20044;-78
2022/12/26 06:04:25;;;;;;;75.35;25.73;;;;;;;7.92;100.00;100548.94;4936767;29;20032;-78
2022/12/26 06:06:55;;;;;;;68.15;25.27;;;;;;;8.03;100.00;100546.06;4936606;29;20091;-78
2022/12/26 06:09:21;;;;;;;66.20;23.98;;;;;;;7.96;100.00;100550.34;4920094;29;20024;-77
2022/12/26 06:11:47;;;;;;;74.03;24.83;;;;;;;8.00;100.00;100535.56;4919872;29;20122;-78
2022/12/26 06:14:13;;;;;;;89.25;31.38;;;;;;;7.94;100.00;100544.25;4927252;29;20039;-77
2022/12/26 06:16:38;;;;;;;85.72;28.13;;;;;;;7.87;100.00;100536.75;4942373;29;20036;-78
2022/12/26 06:19:04;;;;;;;83.53;29.75;;;;;;;7.85;100.00;100557.63;4923271;29;20130;-77
2022/12/26 06:21:29;;;;;;;90.85;31.25;;;;;;;7.82;100.00;100541.75;4939923;29;20035;-78
2022/12/26 06:23:54;;;;;;;90.60;29.55;;;;;;;7.98;100.00;100553.75;4924250;29;20031;-78
2022/12/26 06:26:20;;;;;;;92.85;29.83;;;;;;;8.05;100.00;100554.84;4940024;29;20031;-78
2022/12/26 06:28:46;;;;;;;87.32;27.55;;;;;;;8.08;100.00;100555.38;4955668;29;20035;-78
2022/12/26 06:31:19;;;;;;;92.15;30.02;;;;;;;8.03;100.00;100562.25;4940400;29;20059;-78
2022/12/26 06:33:45;;;;;;;86.70;30.80;;;;;;;7.99;100.00;100555.44;4923834;29;20380;-78
2022/12/26 06:36:17;;;;;;;82.85;28.25;;;;;;;8.11;100.00;100554.25;4922733;29;20027;-78
2022/12/26 06:38:43;;;;;;;77.47;28.35;;;;;;;8.10;100.00;100552.56;4922422;29;20075;-77
2022/12/26 06:41:10;;;;;;;86.32;30.50;;;;;;;8.10;100.00;100557.94;4938229;29;20038;-78
2022/12/26 06:43:36;;;;;;;80.63;27.40;;;;;;;8.22;100.00;100562.13;4920971;29;20023;-77
2022/12/26 06:46:03;;;;;;;77.95;27.90;;;;;;;8.23;100.00;100563.84;4944686;28;20035;-77
2022/12/26 06:48:29;;;;;;;80.88;30.20;;;;;;;8.11;100.00;100560.47;4919521;29;20039;-77
2022/12/26 06:50:55;;;;;;;83.03;29.58;;;;;;;8.05;100.00;100566.47;4936204;29;20027;-77
2022/12/26 06:53:21;;;;;;;78.75;30.63;;;;;;;8.04;100.00;100569.31;4935874;29;20055;-77
2022/12/26 06:55:47;;;;;;;69.45;25.70;;;;;;;8.14;100.00;100570.09;4918752;29;20032;-77
2022/12/26 06:58:13;;;;;;;69.18;28.63;;;;;;;8.13;100.00;100569.25;4918813;29;20031;-77
2022/12/26 07:00:38;;;;;;;75.88;28.80;;;;;;;7.95;100.00;100580.97;4935448;29;20034;-77
2022/12/26 07:03:03;;;;;;;66.50;27.27;;;;;;;8.07;100.00;100579.78;4935446;29;20023;-77
2022/12/26 07:05:29;;;;;;;58.35;26.15;;;;;;;8.19;100.00;100584.00;4918465;29;20066;-77
2022/12/26 07:07:54;;;;;;;58.75;24.75;;;;;;;8.18;100.00;100587.69;4918222;29;20408;-77
2022/12/26 07:10:20;;;;;;;54.90;24.05;;;;;;;8.14;100.00;100586.28;4917575;29;20034;-77
2022/12/26 07:12:47;;;;;;;51.53;23.85;;;;;;;8.18;100.00;100587.69;4949368;29;20034;-77
2022/12/26 07:15:12;;;;;;;51.50;22.88;;;;;;;8.09;100.00;100594.00;4939121;29;20039;-76
2022/12/26 07:17:38;;;;;;;49.25;22.25;;;;;;;8.16;100.00;100600.50;4921754;29;20082;-76
2022/12/26 07:20:05;;;;;;;53.10;25.27;;;;;;;8.04;100.00;100590.91;4929476;29;20201;-76
2022/12/26 07:22:30;;;;;;;53.65;23.92;;;;;;;8.08;100.00;100593.13;4929287;29;20035;-76
2022/12/26 07:24:56;;;;;;;50.55;22.63;;;;;;;8.28;100.00;100596.59;4915042;29;20036;-76
2022/12/26 07:27:22;;;;;;;49.60;24.45;;;;;;;8.31;100.00;100604.38;4914136;29;20027;-76
2022/12/26 07:29:47;;;;;;;48.20;25.50;;;;;;;8.27;100.00;100608.34;4913356;29;20080;-76
2022/12/26 07:32:12;;;;;;;48.80;25.42;;;;;;;8.15;100.00;100609.59;4913368;29;20039;-76
2022/12/26 07:34:38;;;;;;;57.15;28.38;;;;;;;8.16;100.00;100611.28;4913496;29;20028;-76
2022/12/26 07:37:03;;;;;;;61.38;28.17;;;;;;;8.19;100.00;100616.34;4913150;29;20057;-76
2022/12/26 07:39:28;;;;;;;51.78;25.55;;;;;;;8.42;100.00;100623.09;4913105;29;20032;-76
2022/12/26 07:41:57;;;;;;;60.63;29.27;;;;;;;8.36;100.00;100612.91;4928645;29;20031;-76
2022/12/26 07:44:23;;;;;;;50.88;27.85;;;;;;;8.27;100.00;100619.16;4912465;29;20032;-76
2022/12/26 07:46:48;;;;;;;54.95;27.00;;;;;;;8.25;100.00;100620.31;4922308;29;20027;-77
2022/12/26 07:49:14;;;;;;;49.42;26.33;;;;;;;8.23;100.00;100601.59;4928877;29;20036;-75
2022/12/26 07:51:40;;;;;;;49.15;25.98;;;;;;;8.20;100.00;100601.88;4913074;29;20051;-76
2022/12/26 07:54:06;;;;;;;51.63;27.83;;;;;;;8.30;100.00;100602.69;4944817;28;20515;-76
2022/12/26 07:56:32;;;;;;;55.28;28.77;;;;;;;8.25;100.00;100594.19;4913265;29;20028;-75
2022/12/26 07:58:57;;;;;;;50.10;26.17;;;;;;;8.35;100.00;100584.25;4912800;29;20074;-74
2022/12/26 08:01:23;;;;;;;49.35;26.23;;;;;;;8.39;100.00;100574.81;4913033;29;20058;-75
2022/12/26 08:03:49;;;;;;;43.70;26.10;;;;;;;8.52;100.00;100573.63;4914180;29;20127;-74
2022/12/26 08:06:14;;;;;;;55.20;29.88;;;;;;;8.50;100.00;100570.22;4912802;29;20032;-74
2022/12/26 08:08:40;;;;;;;56.25;31.67;;;;;;;8.50;100.00;100570.22;4914856;29;20043;-75
2022/12/26 08:11:07;;;;;;;59.78;30.02;;;;;;;8.55;100.00;100570.63;4928981;29;20036;-73
2022/12/26 08:13:33;;;;;;;57.60;32.33;;;;;;;8.51;100.00;100569.22;4926888;29;20060;-74
2022/12/26 08:15:59;;;;;;;46.50;26.60;;;;;;;8.61;100.00;100568.16;4935495;29;20090;-74
2022/12/26 08:18:25;;;;;;;56.97;29.05;;;;;;;8.60;100.00;100571.00;4936262;29;20042;-74
2022/12/26 08:20:50;;;;;;;56.58;30.90;;;;;;;8.54;100.00;100568.91;4910580;29;20031;-74
2022/12/26 08:23:16;;;;;;;52.28;30.13;;;;;;;8.70;100.00;100561.00;4915850;29;20023;-74
2022/12/26 08:25:42;;;;;;;53.35;29.88;;;;;;;8.68;100.00;100568.41;4915538;29;20032;-73
2022/12/26 08:28:07;;;;;;;55.00;32.05;;;;;;;8.67;100.00;100561.28;4915750;29;20086;-74
2022/12/26 08:30:32;;;;;;;57.85;32.13;;;;;;;8.89;100.00;100577.03;4915846;29;20024;-74
2022/12/26 08:32:58;;;;;;;56.80;30.92;;;;;;;8.83;100.00;100574.94;4915488;29;20038;-74
2022/12/26 08:35:23;;;;;;;54.88;32.60;;;;;;;8.74;100.00;100573.19;4915276;29;20042;-74
2022/12/26 08:37:48;;;;;;;65.53;34.25;;;;;;;8.72;100.00;100569.78;4916023;29;20040;-74
2022/12/26 08:40:14;;;;;;;57.28;33.28;;;;;;;8.73;100.00;100576.84;4915983;29;20028;-74
2022/12/26 08:42:40;;;;;;;65.40;35.35;;;;;;;8.86;100.00;100577.31;4946827;28;20024;-74
2022/12/26 08:45:06;;;;;;;66.55;36.63;;;;;;;8.75;100.00;100574.88;4915267;29;20055;-74
2022/12/26 08:47:31;;;;;;;56.45;33.13;;;;;;;8.83;100.00;100569.53;4915253;29;20482;-74
2022/12/26 08:49:56;;;;;;;55.38;31.52;;;;;;;8.79;100.00;100578.94;4932866;29;20039;-74
2022/12/26 08:52:22;;;;;;;57.10;31.55;;;;;;;8.74;100.00;100567.78;4932244;29;20486;-74
2022/12/26 08:54:47;;;;;;;60.72;33.78;;;;;;;8.82;100.00;100570.56;4915718;29;20387;-74
2022/12/26 08:57:12;;;;;;;61.88;35.67;;;;;;;8.70;100.00;100566.38;4927898;29;20036;-74
2022/12/26 08:59:38;;;;;;;59.88;35.00;;;;;;;8.79;100.00;100573.53;4924218;29;20419;-74
2022/12/26 09:02:03;;;;;;;50.78;30.10;;;;;;;8.86;100.00;100565.69;4948105;28;20027;-74
2022/12/26 09:04:29;;;;;;;61.50;36.10;;;;;;;8.61;100.00;100562.75;4923357;29;20038;-74
2022/12/26 09:06:54;;;;;;;62.45;33.05;;;;;;;8.66;100.00;100563.13;4918167;29;20031;-74
2022/12/26 09:09:19;;;;;;;58.17;32.13;;;;;;;8.68;100.00;100573.78;4916146;29;20039;-74
2022/12/26 09:11:45;;;;;;;65.30;34.22;;;;;;;8.84;100.00;100592.84;4912853;29;20032;-75
2022/12/26 09:14:10;;;;;;;53.47;32.47;;;;;;;8.88;100.00;100586.13;4938489;29;20474;-75
2022/12/26 09:16:41;;;;;;;60.65;33.95;;;;;;;8.82;100.00;100592.16;4914369;29;20406;-75
2022/12/26 09:19:13;;;;;;;56.08;33.08;;;;;;;8.80;100.00;100585.19;4913526;29;20032;-75
2022/12/26 09:21:39;;;;;;;58.40;32.63;;;;;;;8.69;100.00;100606.03;4926796;29;20118;-75
2022/12/26 09:24:08;;;;;;;60.75;33.80;;;;;;;8.81;100.00;100603.97;4912803;29;20106;-75
2022/12/26 09:26:34;;;;;;;51.28;31.13;;;;;;;8.92;100.00;100614.50;4912982;29;20036;-75
2022/12/26 09:28:59;;;;;;;58.33;34.35;;;;;;;8.68;100.00;100616.97;4919987;29;20038;-75
2022/12/26 09:31:27;;;;;;;60.88;33.65;;;;;;;8.78;100.00;100606.94;4912305;29;20038;-74
2022/12/26 09:33:53;;;;;;;56.95;30.88;;;;;;;8.89;100.00;100619.38;4912952;29;20024;-77
2022/12/26 09:36:21;;;;;;;58.65;31.20;;;;;;;8.75;100.00;100612.66;4927974;29;20039;-76
2022/12/26 09:38:47;;;;;;;63.80;33.75;;;;;;;8.68;100.00;100614.28;4911225;29;20026;-76
2022/12/26 09:41:50;;;;;;;52.58;30.02;;;;;;;8.68;100.00;100619.69;4930439;29;20062;-74
2022/12/26 09:44:26;;;;;;;53.35;30.65;;;;;;;8.67;100.00;100609.84;4926655;29;20035;-75
2022/12/26 09:47:05;;;;;;;53.45;29.13;;;;;;;8.86;100.00;100625.91;4914476;29;20024;-75
2022/12/26 09:49:45;;;;;;;52.88;28.17;;;;;;;8.80;100.00;100629.25;4931610;29;20063;-75
2022/12/26 09:52:15;;;;;;;51.00;26.77;;;;;;;8.85;100.00;100613.44;4940588;29;20352;-74
2022/12/26 09:54:51;;;;;;;48.50;26.63;;;;;;;8.87;100.00;100616.84;4933406;29;20119;-74
2022/12/26 09:57:30;;;;;;;47.03;26.90;;;;;;;9.00;100.00;100615.59;4937361;28;20031;-76
2022/12/26 09:59:57;;;;;;;48.50;27.58;;;;;;;8.87;100.00;100627.66;4913839;29;20028;-76
2022/12/26 10:02:25;;;;;;;46.88;25.10;;;;;;;8.87;100.00;100616.84;4925415;29;20114;-76
2022/12/26 10:04:52;;;;;;;45.88;26.08;;;;;;;8.96;100.00;100621.31;4922095;29;20031;-76
2022/12/26 10:07:39;;;;;;;44.35;25.98;;;;;;;8.88;100.00;100625.78;4921838;29;20042;-76
2022/12/26 10:10:13;;;;;;;38.00;23.45;;;;;;;8.95;100.00;100616.06;4928644;29;20035;-75
2022/12/26 10:12:45;;;;;;;45.85;26.00;;;;;;;8.79;100.00;100614.03;4912138;29;20051;-74
2022/12/26 10:15:22;;;;;;;46.33;25.65;;;;;;;8.78;100.00;100596.16;4930032;29;20515;-75
2022/12/26 10:17:58;;;;;;;39.45;23.27;;;;;;;9.00;100.00;100604.78;4938740;28;20023;-75
2022/12/26 10:20:54;;;;;;;44.70;24.52;;;;;;;9.03;100.00;100599.09;4925110;29;20035;-74
2022/12/26 10:23:42;;;;;;;43.25;23.40;;;;;;;8.98;100.00;100596.84;4930199;29;20032;-74
2022/12/26 10:26:27;;;;;;;40.17;23.67;;;;;;;9.04;100.00;100584.59;4910407;29;20079;-74
2022/12/26 10:29:04;;;;;;;43.47;25.27;;;;;;;9.02;100.00;100594.69;4907545;29;20016;-76
2022/12/26 10:31:37;;;;;;;36.08;22.63;;;;;;;8.89;100.00;100587.84;4910381;29;20038;-74
2022/12/26 10:34:07;;;;;;;39.10;23.35;;;;;;;9.09;100.00;100593.91;4918083;29;20032;-74
2022/12/26 10:36:44;;;;;;;43.20;24.08;;;;;;;9.12;100.00;100593.59;4933628;28;20031;-74
2022/12/26 10:39:33;;;;;;;36.83;23.73;;;;;;;9.19;100.00;100593.81;4909319;29;20088;-75
2022/12/26 10:42:08;;;;;;;44.53;23.30;;;;;;;9.07;100.00;100595.09;4907478;29;20040;-74
2022/12/26 10:44:33;;;;;;;49.50;23.25;;;;;;;9.11;100.00;100597.31;4917746;29;20091;-76
2022/12/26 10:47:07;;;;;;;40.10;22.55;;;;;;;9.13;100.00;100578.25;4932493;28;20119;-74
2022/12/26 10:49:32;;;;;;;37.30;23.40;;;;;;;8.96;100.00;100586.22;4911381;29;20067;-75
2022/12/26 10:51:59;;;;;;;43.80;23.08;;;;;;;9.02;100.00;100586.59;4920074;29;20051;-76
2022/12/26 10:54:27;;;;;;;47.45;23.88;;;;;;;9.26;100.00;100578.72;4914225;29;20115;-74
2022/12/26 10:56:55;;;;;;;40.63;22.30;;;;;;;9.15;100.00;100576.25;4917536;29;20051;-76
2022/12/26 10:59:29;;;;;;;40.28;21.73;;;;;;;9.16;100.00;100583.34;4915304;29;20054;-74
2022/12/26 11:02:29;;;;;;;43.28;22.13;;;;;;;9.05;100.00;100575.47;4911715;29;20519;-74
2022/12/26 11:05:22;;;;;;;37.67;21.70;;;;;;;9.19;100.00;100566.81;4923911;29;20055;-76
2022/12/26 11:07:54;;;;;;;34.83;21.00;;;;;;;9.04;100.00;100569.22;4921574;29;20028;-76
2022/12/26 11:10:27;;;;;;;37.22;22.70;;;;;;;9.11;100.00;100569.44;4936164;28;20031;-76
2022/12/26 11:12:55;;;;;;;36.72;21.48;;;;;;;9.06;100.00;100566.34;4917826;29;20123;-76
2022/12/26 11:15:29;;;;;;;39.70;20.63;;;;;;;9.16;100.00;100559.88;4916826;29;20086;-73
2022/12/26 11:18:07;;;;;;;35.63;20.67;;;;;;;9.22;100.00;100550.31;4935241;28;20028;-76
2022/12/26 11:20:33;;;;;;;42.83;20.05;;;;;;;9.18;100.00;100567.81;4921773;29;20031;-76
2022/12/26 11:23:23;;;;;;;38.45;19.27;;;;;;;9.20;100.00;100546.91;4912199;29;20395;-76
2022/12/26 11:25:51;;;;;;;40.00;18.77;;;;;;;9.20;100.00;100553.16;4915466;29;20047;-76
2022/12/26 11:28:43;;;;;;;39.97;18.65;;;;;;;9.20;100.00;100552.31;4937213;28;20122;-76
2022/12/26 11:31:23;;;;;;;32.35;19.15;;;;;;;9.29;100.00;100535.16;4912105;29;20036;-76
2022/12/26 11:33:48;;;;;;;36.13;17.85;;;;;;;9.13;100.00;100540.44;4937002;29;20032;-76
2022/12/26 11:36:14;;;;;;;38.50;18.48;;;;;;;9.17;100.00;100537.25;4929928;29;20110;-76
2022/12/26 11:38:47;;;;;;;34.97;20.20;;;;;;;9.14;100.00;100520.53;4936358;29;20042;-76
2022/12/26 11:41:30;;;;;;;30.85;17.85;;;;;;;9.20;100.00;100525.31;4921830;29;20019;-76
2022/12/26 11:44:01;;;;;;;32.05;17.13;;;;;;;9.26;100.00;100530.06;4936543;29;20451;-76
2022/12/26 11:46:39;;;;;;;32.67;15.82;;;;;;;9.10;100.00;100548.84;4946542;28;20055;-76
2022/12/26 11:49:05;;;;;;;31.83;16.38;;;;;;;9.06;100.00;100529.41;4928290;29;20027;-76
2022/12/26 11:51:38;;;;;;;29.40;17.10;;;;;;;9.23;100.00;100519.56;4915343;29;20139;-76
2022/12/26 11:54:46;;;;;;;31.58;16.42;;;;;;;9.25;100.00;100520.25;4916359;29;20114;-75
2022/12/26 11:57:26;;;;;;;30.85;16.67;;;;;;;9.19;100.00;100520.88;4931856;29;20118;-75
2022/12/26 11:59:52;;;;;;;26.75;15.13;;;;;;;9.25;100.00;100514.84;4916227;29;20032;-75
2022/12/26 12:02:18;;;;;;;31.15;16.23;;;;;;;9.18;100.00;100516.50;4919540;29;20080;-75
2022/12/26 12:04:48;;;;;;;26.67;14.95;;;;;;;9.28;100.00;100501.03;4931719;29;20024;-75
2022/12/26 12:07:37;;;;;;;27.40;14.80;;;;;;;9.28;100.00;100501.03;4933758;29;20023;-75
2022/12/26 12:10:30;;;;;;;33.10;16.05;;;;;;;9.38;100.00;100501.75;4927369;29;20050;-75
2022/12/26 12:13:09;;;;;;;34.63;14.63;;;;;;;9.32;100.00;100491.59;4935897;29;20075;-75
2022/12/26 12:15:45;;;;;;;34.25;16.25;;;;;;;9.16;100.00;100481.53;4924330;29;20031;-75
2022/12/26 12:18:33;;;;;;;26.40;14.50;;;;;;;9.13;100.00;100486.44;4933297;28;20129;-76
2022/12/26 12:21:49;;;;;;;31.80;15.57;;;;;;;9.21;100.00;100500.00;4947709;28;20036;-76
2022/12/26 12:24:17;;;;;;;28.83;17.35;;;;;;;9.04;100.00;100487.38;4919522;29;20048;-75
2022/12/26 12:27:12;;;;;;;33.30;17.05;;;;;;;9.04;100.00;100498.16;4930106;29;20122;-75
2022/12/26 12:29:59;;;;;;;27.95;16.48;;;;;;;8.91;100.00;100488.63;4946064;28;20028;-75
2022/12/26 12:32:33;;;;;;;34.97;16.35;;;;;;;8.86;100.00;100490.94;4947200;29;20019;-75
2022/12/26 12:35:18;;;;;;;35.42;16.75;;;;;;;8.76;100.00;100495.59;4917508;29;20042;-75
2022/12/26 12:38:23;;;;;;;37.53;17.63;;;;;;;8.83;100.00;100491.25;4919331;29;20035;-75
2022/12/26 12:41:04;;;;;;;33.88;15.48;;;;;;;8.96;100.00;100513.31;4914788;29;20077;-75
2022/12/26 12:43:44;;;;;;;30.35;14.63;;;;;;;9.03;100.00;100504.56;4934449;29;20386;-75
2022/12/26 12:46:34;;;;;;;30.75;14.80;;;;;;;8.97;100.00;100509.59;4934300;29;20032;-75
2022/12/26 12:49:30;;;;;;;26.98;13.65;;;;;;;9.06;100.00;100496.16;4950024;28;20157;-75
2022/12/26 12:52:13;;;;;;;23.17;12.23;;;;;;;9.09;100.00;100498.56;4917823;29;20032;-75
2022/12/26 12:54:49;;;;;;;27.00;14.32;;;;;;;9.11;100.00;100501.94;4934764;29;20038;-77
2022/12/26 12:57:44;;;;;;;25.55;13.70;;;;;;;9.20;100.00;100487.50;4931669;29;20082;-76
2022/12/26 13:00:17;;;;;;;25.58;12.90;;;;;;;9.16;100.00;100502.31;4931153;29;20101;-75
2022/12/26 13:02:55;;;;;;;17.50;10.75;;;;;;;9.19;100.00;100496.56;4918928;29;20086;-75
2022/12/26 13:05:50;;;;;;;19.20;11.55;;;;;;;9.15;100.00;100484.41;4935559;29;20050;-75
2022/12/26 13:08:25;;;;;;;22.00;10.70;;;;;;;9.21;100.00;100489.19;4936269;29;20036;-75
2022/12/26 13:10:56;;;;;;;22.15;10.32;;;;;;;9.22;100.00;100486.31;4913272;29;20032;-75
2022/12/26 13:13:36;;;;;;;26.23;12.82;;;;;;;9.26;100.00;100497.66;4936234;29;20091;-75
2022/12/26 13:16:15;;;;;;;17.05;9.98;;;;;;;9.23;100.00;100508.78;4941665;28;20043;-75
2022/12/26 13:19:39;;;;;;;15.43;8.93;;;;;;;9.25;100.00;100533.75;4928139;29;20062;-75
2022/12/26 13:22:13;;;;;;;15.23;7.22;;;;;;;9.36;100.00;100528.09;4910727;29;20171;-75
2022/12/26 13:24:44;;;;;;;17.70;7.82;;;;;;;9.44;100.00;100517.34;4918150;29;20035;-75
2022/12/26 13:27:27;;;;;;;17.33;7.63;;;;;;;9.41;100.00;100509.56;4919274;29;20031;-75
2022/12/26 13:29:53;;;;;;;20.70;6.85;;;;;;;9.42;100.00;100543.69;4935088;29;20252;-75